Aérodrome :
LOGIN :

S'inscrire | Disclaimer

   EN    FR    IT 

 










Légende :    VFR   VFR Marginal   IFR   IFR Intensif   IFR Très Intensif
Visi : 
Plafond : 
>= 8 km
>= 3000ft
5 à 8 km
1000 à 3000 ft
1500m à 5 km
500 à 1000 ft
800 à 1500m
200 à 500 ft
< 800m
< 200 ft
Symboles :   Orages  Brouillard  Fortes neiges  Fortes précipitations  Vent > 20 kt
SIGMETs :   Divers  Orages  Givrage  Turbulence  Onde Orograph.  Cendres Volcan.







- Altitude de l'aérodrome : 20 ft


EBFN - Koksijde

DERNIER METAR :
  • 101355Z 32010KT 9999 SCT020 BKN045 09/04 Q1026 WHT BLU TEMPO WHT

METARs EXPIRÉS :
  • 101325Z 32012KT 9999 SCT020 SCT220 09/04 Q1026 WHT BLU TEMPO WHT
  • 101322Z 32011KT 9999 FEW025 SCT220 09/04 Q1026 BLU BLU TEMPO WHT
  • 101255Z 32012KT 9999 FEW025 SCT220 09/03 Q1026 BLU BLU
  • 101225Z 32012KT 9999 FEW025 SCT220 09/04 Q1026 BLU BLU
  • 101155Z 32013KT 9999 FEW023 SCT220 09/03 Q1026 BLU BLU
  • 101125Z 31012KT 9999 FEW023 SCT220 09/04 Q1026 BLU BLU
  • 101055Z 31013KT 9999 FEW022 SCT200 09/03 Q1026 BLU BLU

TAF TAF EBFN
Valide du 10 à 13h jusqu'au 10 à 22h UTC


101141Z 1013/1022 30012G22KT 9999 SCT025
TEMPO 1013/1022 SCT018
PROB30
TEMPO 1013/1015 5000 -SHRA SCT012
Pas de NOTAMs connus pour ce terrain.



MET'MAP, la Météo Aéronautique d'un coup d'oeil ! - Copyright ORBIFLY Décembre 2007 - Disclaimer

ORBIFLY MET'MAP TEAM :

Programmation & Développement : Alexandra Zaïnal
Conception & Développement : Baudouin d'Aumeries
Co-Programmation & Développement : Marc-Olivier Méhu
Soutien technique & logistique : Manuel Goepfert

Contact : metmap@orbifly.com




SOURCES & CREDITS :

   NOAA